PWSweather.com
Personal Weather Stations
Station Observations
NEWFAL01
Newton Falls, OH 44444

Newton Falls, OH 44444

Lat: 41.19902, Lon: -80.97668

Elevation: 920

Station Type: Vantage Pro 2

http://www.mvweathercenter.com

High Low Average
Temperature 85.2°F29.6°C 52.0°F11.1°C 68.5°F20.3°C
Dew Point 62.1°F16.7°C 48.3°F9.1°C 56.5°F13.6°C
Winds 4.6 mph 7.4 kmh Calm Calm Calm WSWCalm WSW
Wind Gusts 13.8 mph22.2 kmh -- 1.0 mph1.6 kmh
Humidity 90% 40% 69%
Pressure 30.09 in1019.0 mb 29.95 in1014.2 mb -
Precipitation 0.00 in0.0 mm - -
Hour Temp Dew Point Humidity Winds Wind Gusts Pressure Precip Precip Rate Daily Precip Total
12:00 AM 60.1°F15.6°C 54.6°F12.6°C 82% Calm Calm -- 30.05 in1017.6 mb - 0.00 in0.0 mm 0.00 in0.0 mm
12:10 AM 59.8°F15.4°C 54.6°F12.6°C 83% Calm Calm -- 30.04 in1017.3 mb - 0.00 in0.0 mm 0.00 in0.0 mm
12:15 AM 59.6°F15.3°C 54.4°F12.4°C 83% Calm Calm -- 30.04 in1017.3 mb - 0.00 in0.0 mm 0.00 in0.0 mm
12:20 AM 59.4°F15.2°C 54.2°F12.3°C 83% Calm Calm -- 30.04 in1017.3 mb - 0.00 in0.0 mm 0.00 in0.0 mm
12:25 AM 59.0°F15.0°C 53.9°F12.2°C 83% Calm Calm -- 30.04 in1017.3 mb - 0.00 in0.0 mm 0.00 in0.0 mm
12:30 AM 59.0°F15.0°C 53.8°F12.1°C 83% Calm Calm -- 30.04 in1017.3 mb - 0.00 in0.0 mm 0.00 in0.0 mm
12:35 AM 59.0°F15.0°C 54.1°F12.3°C 84% Calm Calm -- 30.05 in1017.6 mb - 0.00 in0.0 mm 0.00 in0.0 mm
12:40 AM 58.7°F14.8°C 53.9°F12.2°C 84% Calm Calm -- 30.05 in1017.6 mb - 0.00 in0.0 mm 0.00 in0.0 mm
12:45 AM 58.6°F14.8°C 53.8°F12.1°C 84% Calm Calm -- 30.05 in1017.6 mb - 0.00 in0.0 mm 0.00 in0.0 mm
12:50 AM 58.5°F14.7°C 53.7°F12.1°C 84% Calm Calm -- 30.05 in1017.6 mb - 0.00 in0.0 mm 0.00 in0.0 mm
12:55 AM 58.4°F14.7°C 53.6°F12.0°C 84% Calm Calm -- 30.05 in1017.6 mb - 0.00 in0.0 mm 0.00 in0.0 mm
01:00 AM 58.3°F14.6°C 53.5°F11.9°C 84% Calm Calm -- 30.05 in1017.6 mb - 0.00 in0.0 mm 0.00 in0.0 mm
01:10 AM 58.0°F14.4°C 53.5°F11.9°C 85% Calm Calm -- 30.04 in1017.3 mb - 0.00 in0.0 mm 0.00 in0.0 mm
01:15 AM 57.9°F14.4°C 53.4°F11.9°C 85% Calm Calm -- 30.04 in1017.3 mb - 0.00 in0.0 mm 0.00 in0.0 mm
01:20 AM 57.8°F14.3°C 53.3°F11.8°C 85% Calm Calm -- 30.05 in1017.6 mb - 0.00 in0.0 mm 0.00 in0.0 mm
01:25 AM 57.7°F14.3°C 53.2°F11.8°C 85% Calm Calm -- 30.04 in1017.3 mb - 0.00 in0.0 mm 0.00 in0.0 mm
01:30 AM 57.5°F14.2°C 53.0°F11.7°C 85% Calm Calm -- 30.04 in1017.3 mb - 0.00 in0.0 mm 0.00 in0.0 mm
01:35 AM 57.3°F14.1°C 52.8°F11.6°C 85% Calm Calm -- 30.05 in1017.6 mb - 0.00 in0.0 mm 0.00 in0.0 mm
01:40 AM 57.2°F14.0°C 52.7°F11.5°C 85% Calm Calm -- 30.05 in1017.6 mb - 0.00 in0.0 mm 0.00 in0.0 mm
01:45 AM 57.1°F13.9°C 52.6°F11.4°C 85% Calm Calm -- 30.05 in1017.6 mb - 0.00 in0.0 mm 0.00 in0.0 mm
01:50 AM 57.0°F13.9°C 52.5°F11.4°C 85% Calm Calm -- 30.05 in1017.6 mb - 0.00 in0.0 mm 0.00 in0.0 mm
01:55 AM 56.9°F13.8°C 52.4°F11.3°C 85% Calm Calm -- 30.05 in1017.6 mb - 0.00 in0.0 mm 0.00 in0.0 mm
02:00 AM 56.8°F13.8°C 52.4°F11.3°C 85% Calm Calm -- 30.05 in1017.6 mb - 0.00 in0.0 mm 0.00 in0.0 mm
02:10 AM 56.8°F13.8°C 52.7°F11.5°C 86% Calm Calm -- 30.05 in1017.6 mb - 0.00 in0.0 mm 0.00 in0.0 mm
02:15 AM 56.7°F13.7°C 52.6°F11.4°C 86% Calm Calm -- 30.05 in1017.6 mb - 0.00 in0.0 mm 0.00 in0.0 mm
02:20 AM 56.6°F13.7°C 52.5°F11.4°C 86% Calm Calm -- 30.05 in1017.6 mb - 0.00 in0.0 mm 0.00 in0.0 mm
02:25 AM 56.5°F13.6°C 52.4°F11.3°C 86% Calm Calm -- 30.05 in1017.6 mb - 0.00 in0.0 mm 0.00 in0.0 mm
02:30 AM 56.4°F13.6°C 52.3°F11.3°C 86% Calm Calm -- 30.05 in1017.6 mb - 0.00 in0.0 mm 0.00 in0.0 mm
02:35 AM 56.3°F13.5°C 52.2°F11.2°C 86% Calm Calm -- 30.05 in1017.6 mb - 0.00 in0.0 mm 0.00 in0.0 mm
02:40 AM 56.2°F13.4°C 52.1°F11.2°C 86% Calm Calm -- 30.05 in1017.6 mb - 0.00 in0.0 mm 0.00 in0.0 mm
02:45 AM 56.2°F13.4°C 52.1°F11.2°C 86% Calm Calm -- 30.05 in1017.6 mb - 0.00 in0.0 mm 0.00 in0.0 mm
02:50 AM 56.1°F13.4°C 52.0°F11.1°C 86% Calm Calm -- 30.05 in1017.6 mb - 0.00 in0.0 mm 0.00 in0.0 mm
02:55 AM 56.0°F13.3°C 51.9°F11.1°C 86% Calm Calm -- 30.06 in1017.9 mb - 0.00 in0.0 mm 0.00 in0.0 mm
03:00 AM 56.0°F13.3°C 51.9°F11.1°C 86% Calm Calm -- 30.06 in1017.9 mb - 0.00 in0.0 mm 0.00 in0.0 mm
03:10 AM 55.9°F13.3°C 51.8°F11.0°C 86% Calm Calm -- 30.05 in1017.6 mb - 0.00 in0.0 mm 0.00 in0.0 mm
03:15 AM 55.9°F13.3°C 51.8°F11.0°C 86% Calm Calm -- 30.06 in1017.9 mb - 0.00 in0.0 mm 0.00 in0.0 mm
03:20 AM 55.8°F13.2°C 51.6°F10.9°C 86% Calm Calm -- 30.05 in1017.6 mb - 0.00 in0.0 mm 0.00 in0.0 mm
03:25 AM 55.6°F13.1°C 51.4°F10.8°C 86% Calm Calm -- 30.05 in1017.6 mb - 0.00 in0.0 mm 0.00 in0.0 mm
03:30 AM 55.4°F13.0°C 51.3°F10.7°C 86% Calm Calm -- 30.05 in1017.6 mb - 0.00 in0.0 mm 0.00 in0.0 mm
03:35 AM 55.3°F12.9°C 51.2°F10.7°C 86% Calm Calm -- 30.06 in1017.9 mb - 0.00 in0.0 mm 0.00 in0.0 mm
03:40 AM 55.2°F12.9°C 51.1°F10.6°C 86% Calm Calm -- 30.06 in1017.9 mb - 0.00 in0.0 mm 0.00 in0.0 mm
03:45 AM 55.1°F12.8°C 51.0°F10.6°C 86% Calm Calm -- 30.06 in1017.9 mb - 0.00 in0.0 mm 0.00 in0.0 mm
03:50 AM 55.0°F12.8°C 51.2°F10.7°C 87% Calm Calm -- 30.05 in1017.6 mb - 0.00 in0.0 mm 0.00 in0.0 mm
03:55 AM 55.0°F12.8°C 51.2°F10.7°C 87% Calm Calm -- 30.05 in1017.6 mb - 0.00 in0.0 mm 0.00 in0.0 mm
04:00 AM 54.9°F12.7°C 50.8°F10.4°C 86% Calm Calm -- 30.05 in1017.6 mb - 0.00 in0.0 mm 0.00 in0.0 mm
04:10 AM 54.6°F12.6°C 50.8°F10.4°C 87% Calm Calm -- 30.06 in1017.9 mb - 0.00 in0.0 mm 0.00 in0.0 mm
04:15 AM 54.5°F12.5°C 50.7°F10.4°C 87% Calm Calm -- 30.06 in1017.9 mb - 0.00 in0.0 mm 0.00 in0.0 mm
04:20 AM 54.5°F12.5°C 50.7°F10.4°C 87% Calm Calm -- 30.06 in1017.9 mb - 0.00 in0.0 mm 0.00 in0.0 mm
04:25 AM 54.4°F12.4°C 50.6°F10.3°C 87% Calm Calm -- 30.06 in1017.9 mb - 0.00 in0.0 mm 0.00 in0.0 mm
04:30 AM 54.3°F12.4°C 50.5°F10.3°C 87% Calm Calm -- 30.06 in1017.9 mb - 0.00 in0.0 mm 0.00 in0.0 mm
04:35 AM 54.3°F12.4°C 50.5°F10.3°C 87% Calm Calm -- 30.06 in1017.9 mb - 0.00 in0.0 mm 0.00 in0.0 mm
04:40 AM 54.3°F12.4°C 50.5°F10.3°C 87% Calm Calm -- 30.06 in1017.9 mb - 0.00 in0.0 mm 0.00 in0.0 mm
04:45 AM 54.2°F12.3°C 50.4°F10.2°C 87% Calm Calm -- 30.05 in1017.6 mb - 0.00 in0.0 mm 0.00 in0.0 mm
04:50 AM 54.1°F12.3°C 50.3°F10.2°C 87% Calm Calm -- 30.06 in1017.9 mb - 0.00 in0.0 mm 0.00 in0.0 mm
04:55 AM 54.1°F12.3°C 50.3°F10.2°C 87% Calm Calm -- 30.06 in1017.9 mb - 0.00 in0.0 mm 0.00 in0.0 mm
05:00 AM 54.0°F12.2°C 50.2°F10.1°C 87% Calm Calm -- 30.06 in1017.9 mb - 0.00 in0.0 mm 0.00 in0.0 mm
05:10 AM 53.7°F12.1°C 49.9°F9.9°C 87% Calm Calm -- 30.06 in1017.9 mb - 0.00 in0.0 mm 0.00 in0.0 mm
05:15 AM 53.5°F11.9°C 49.7°F9.8°C 87% Calm Calm -- 30.06 in1017.9 mb - 0.00 in0.0 mm 0.00 in0.0 mm
05:20 AM 53.4°F11.9°C 49.6°F9.8°C 87% Calm Calm -- 30.06 in1017.9 mb - 0.00 in0.0 mm 0.00 in0.0 mm
05:25 AM 53.3°F11.8°C 49.5°F9.7°C 87% Calm Calm -- 30.06 in1017.9 mb - 0.00 in0.0 mm 0.00 in0.0 mm
05:30 AM 53.3°F11.8°C 49.5°F9.7°C 87% Calm Calm -- 30.06 in1017.9 mb - 0.00 in0.0 mm 0.00 in0.0 mm
05:35 AM 53.3°F11.8°C 49.5°F9.7°C 87% Calm Calm -- 30.06 in1017.9 mb - 0.00 in0.0 mm 0.00 in0.0 mm
05:40 AM 53.1°F11.7°C 49.3°F9.6°C 87% Calm Calm -- 30.06 in1017.9 mb - 0.00 in0.0 mm 0.00 in0.0 mm
05:45 AM 53.0°F11.7°C 49.2°F9.6°C 87% Calm Calm -- 30.06 in1017.9 mb - 0.00 in0.0 mm 0.00 in0.0 mm
05:50 AM 52.9°F11.6°C 49.1°F9.5°C 87% Calm Calm -- 30.06 in1017.9 mb - 0.00 in0.0 mm 0.00 in0.0 mm
05:55 AM 52.8°F11.6°C 49.1°F9.5°C 87% Calm Calm -- 30.07 in1018.3 mb - 0.00 in0.0 mm 0.00 in0.0 mm
06:00 AM 52.8°F11.6°C 49.0°F9.4°C 87% Calm Calm -- 30.07 in1018.3 mb - 0.00 in0.0 mm 0.00 in0.0 mm
06:10 AM 52.7°F11.5°C 49.2°F9.6°C 88% Calm Calm -- 30.07 in1018.3 mb - 0.00 in0.0 mm 0.00 in0.0 mm
06:15 AM 52.7°F11.5°C 48.9°F9.4°C 87% Calm Calm -- 30.07 in1018.3 mb - 0.00 in0.0 mm 0.00 in0.0 mm
06:20 AM 52.5°F11.4°C 48.7°F9.3°C 87% Calm Calm -- 30.07 in1018.3 mb - 0.00 in0.0 mm 0.00 in0.0 mm
06:25 AM 52.4°F11.3°C 48.6°F9.2°C 87% Calm Calm -- 30.07 in1018.3 mb - 0.00 in0.0 mm 0.00 in0.0 mm
06:30 AM 52.3°F11.3°C 48.5°F9.2°C 87% Calm Calm -- 30.07 in1018.3 mb - 0.00 in0.0 mm 0.00 in0.0 mm
06:35 AM 52.1°F11.2°C 48.3°F9.1°C 87% Calm Calm -- 30.07 in1018.3 mb - 0.00 in0.0 mm 0.00 in0.0 mm
06:40 AM 52.0°F11.1°C 48.3°F9.1°C 87% Calm Calm -- 30.07 in1018.3 mb - 0.00 in0.0 mm 0.00 in0.0 mm
06:45 AM 52.0°F11.1°C 48.3°F9.1°C 87% Calm Calm -- 30.07 in1018.3 mb - 0.00 in0.0 mm 0.00 in0.0 mm
06:50 AM 52.1°F11.2°C 48.7°F9.3°C 88% Calm Calm -- 30.08 in1018.6 mb - 0.00 in0.0 mm 0.00 in0.0 mm
06:55 AM 52.1°F11.2°C 48.3°F9.1°C 87% Calm Calm -- 30.08 in1018.6 mb - 0.00 in0.0 mm 0.00 in0.0 mm
07:00 AM 52.2°F11.2°C 48.8°F9.3°C 88% Calm Calm -- 30.08 in1018.6 mb - 0.00 in0.0 mm 0.00 in0.0 mm
07:10 AM 52.4°F11.3°C 48.9°F9.4°C 88% Calm Calm -- 30.08 in1018.6 mb - 0.00 in0.0 mm 0.00 in0.0 mm
07:15 AM 52.6°F11.4°C 49.1°F9.5°C 88% Calm Calm -- 30.08 in1018.6 mb - 0.00 in0.0 mm 0.00 in0.0 mm
07:20 AM 52.8°F11.6°C 49.3°F9.6°C 88% Calm Calm -- 30.08 in1018.6 mb - 0.00 in0.0 mm 0.00 in0.0 mm
07:25 AM 53.0°F11.7°C 49.5°F9.7°C 88% Calm Calm -- 30.08 in1018.6 mb - 0.00 in0.0 mm 0.00 in0.0 mm
07:30 AM 53.2°F11.8°C 49.7°F9.8°C 88% Calm Calm -- 30.08 in1018.6 mb - 0.00 in0.0 mm 0.00 in0.0 mm
07:35 AM 53.4°F11.9°C 50.0°F10.0°C 88% Calm Calm -- 30.08 in1018.6 mb - 0.00 in0.0 mm 0.00 in0.0 mm
07:40 AM 53.7°F12.1°C 50.5°F10.3°C 89% Calm Calm -- 30.08 in1018.6 mb - 0.00 in0.0 mm 0.00 in0.0 mm
07:45 AM 54.0°F12.2°C 50.5°F10.3°C 88% Calm Calm -- 30.08 in1018.6 mb - 0.00 in0.0 mm 0.00 in0.0 mm
07:50 AM 54.3°F12.4°C 51.2°F10.7°C 89% Calm Calm -- 30.09 in1019.0 mb - 0.00 in0.0 mm 0.00 in0.0 mm
07:55 AM 54.7°F12.6°C 51.5°F10.8°C 89% Calm Calm -- 30.08 in1018.6 mb - 0.00 in0.0 mm 0.00 in0.0 mm
08:00 AM 55.0°F12.8°C 51.8°F11.0°C 89% Calm Calm -- 30.09 in1019.0 mb - 0.00 in0.0 mm 0.00 in0.0 mm
08:10 AM 55.6°F13.1°C 52.4°F11.3°C 89% Calm Calm -- 30.09 in1019.0 mb - 0.00 in0.0 mm 0.00 in0.0 mm
08:15 AM 56.0°F13.3°C 52.8°F11.6°C 89% Calm Calm -- 30.09 in1019.0 mb - 0.00 in0.0 mm 0.00 in0.0 mm
08:20 AM 56.4°F13.6°C 53.2°F11.8°C 89% Calm Calm -- 30.09 in1019.0 mb - 0.00 in0.0 mm 0.00 in0.0 mm
08:25 AM 56.9°F13.8°C 53.7°F12.1°C 89% Calm Calm -- 30.09 in1019.0 mb - 0.00 in0.0 mm 0.00 in0.0 mm
08:30 AM 57.3°F14.1°C 54.1°F12.3°C 89% Calm Calm -- 30.09 in1019.0 mb - 0.00 in0.0 mm 0.00 in0.0 mm
08:35 AM 57.7°F14.3°C 54.5°F12.5°C 89% Calm Calm -- 30.09 in1019.0 mb - 0.00 in0.0 mm 0.00 in0.0 mm
08:40 AM 58.1°F14.5°C 54.9°F12.7°C 89% Calm Calm -- 30.09 in1019.0 mb - 0.00 in0.0 mm 0.00 in0.0 mm
08:45 AM 58.6°F14.8°C 55.7°F13.2°C 90% Calm Calm -- 30.09 in1019.0 mb - 0.00 in0.0 mm 0.00 in0.0 mm
08:50 AM 59.0°F15.0°C 56.1°F13.4°C 90% Calm Calm -- 30.09 in1019.0 mb - 0.00 in0.0 mm 0.00 in0.0 mm
09:00 AM 59.6°F15.3°C 56.6°F13.7°C 90% Calm Calm -- 30.09 in1019.0 mb - 0.00 in0.0 mm 0.00 in0.0 mm
09:10 AM 60.2°F15.7°C 57.3°F14.1°C 90% Calm Calm -- 30.09 in1019.0 mb - 0.00 in0.0 mm 0.00 in0.0 mm
09:15 AM 60.5°F15.8°C 57.2°F14.0°C 89% Calm Calm -- 30.09 in1019.0 mb - 0.00 in0.0 mm 0.00 in0.0 mm
09:20 AM 60.9°F16.1°C 57.6°F14.2°C 89% Calm Calm -- 30.09 in1019.0 mb - 0.00 in0.0 mm 0.00 in0.0 mm
09:30 AM 61.4°F16.3°C 58.1°F14.5°C 89% Calm Calm -- 30.09 in1019.0 mb - 0.00 in0.0 mm 0.00 in0.0 mm
09:35 AM 61.8°F16.6°C 58.5°F14.7°C 89% Calm Calm -- 30.09 in1019.0 mb - 0.00 in0.0 mm 0.00 in0.0 mm
09:40 AM 62.2°F16.8°C 58.6°F14.8°C 88% Calm Calm -- 30.09 in1019.0 mb - 0.00 in0.0 mm 0.00 in0.0 mm
09:45 AM 62.7°F17.1°C 59.1°F15.1°C 88% Calm Calm -- 30.09 in1019.0 mb - 0.00 in0.0 mm 0.00 in0.0 mm
09:50 AM 63.1°F17.3°C 58.9°F14.9°C 86% Calm Calm -- 30.09 in1019.0 mb - 0.00 in0.0 mm 0.00 in0.0 mm
09:55 AM 63.7°F17.6°C 59.1°F15.1°C 85% Calm Calm -- 30.09 in1019.0 mb - 0.00 in0.0 mm 0.00 in0.0 mm
10:00 AM 64.2°F17.9°C 58.9°F14.9°C 83% Calm Calm -- 30.08 in1018.6 mb - 0.00 in0.0 mm 0.00 in0.0 mm
10:10 AM 65.6°F18.7°C 59.2°F15.1°C 80% Calm Calm -- 30.08 in1018.6 mb - 0.00 in0.0 mm 0.00 in0.0 mm
10:15 AM 66.1°F18.9°C 58.3°F14.6°C 76% Calm Calm -- 30.08 in1018.6 mb - 0.00 in0.0 mm 0.00 in0.0 mm
10:20 AM 67.0°F19.4°C 59.6°F15.3°C 77% Calm Calm -- 30.08 in1018.6 mb - 0.00 in0.0 mm 0.00 in0.0 mm
10:25 AM 67.6°F19.8°C 58.7°F14.8°C 73% Calm Calm -- 30.08 in1018.6 mb - 0.00 in0.0 mm 0.00 in0.0 mm
10:30 AM 68.3°F20.2°C 58.9°F14.9°C 72% Calm Calm -- 30.08 in1018.6 mb - 0.00 in0.0 mm 0.00 in0.0 mm
10:35 AM 68.9°F20.5°C 58.8°F14.9°C 70% Calm Calm -- 30.07 in1018.3 mb - 0.00 in0.0 mm 0.00 in0.0 mm
10:40 AM 69.6°F20.9°C 59.8°F15.4°C 71% Calm Calm -- 30.08 in1018.6 mb - 0.00 in0.0 mm 0.00 in0.0 mm
10:45 AM 70.1°F21.2°C 59.9°F15.5°C 70% Calm Calm -- 30.08 in1018.6 mb - 0.00 in0.0 mm 0.00 in0.0 mm
10:50 AM 70.6°F21.4°C 59.9°F15.5°C 69% Calm Calm -- 30.07 in1018.3 mb - 0.00 in0.0 mm 0.00 in0.0 mm
10:55 AM 71.0°F21.7°C 59.9°F15.5°C 68% Calm Calm -- 30.08 in1018.6 mb - 0.00 in0.0 mm 0.00 in0.0 mm
11:00 AM 71.7°F22.1°C 60.5°F15.8°C 68% Calm Calm -- 30.07 in1018.3 mb - 0.00 in0.0 mm 0.00 in0.0 mm
11:10 AM 72.5°F22.5°C 60.5°F15.8°C 66% Calm Calm -- 30.07 in1018.3 mb - 0.00 in0.0 mm 0.00 in0.0 mm
11:15 AM 72.8°F22.7°C 59.5°F15.3°C 63% Calm Calm -- 30.07 in1018.3 mb - 0.00 in0.0 mm 0.00 in0.0 mm
11:20 AM 73.1°F22.8°C 58.8°F14.9°C 61% Calm Calm -- 30.07 in1018.3 mb - 0.00 in0.0 mm 0.00 in0.0 mm
11:25 AM 73.6°F23.1°C 59.8°F15.4°C 62% Calm Calm -- 30.07 in1018.3 mb - 0.00 in0.0 mm 0.00 in0.0 mm
11:30 AM 74.1°F23.4°C 59.8°F15.4°C 61% Calm Calm -- 30.07 in1018.3 mb - 0.00 in0.0 mm 0.00 in0.0 mm
11:35 AM 74.8°F23.8°C 60.9°F16.1°C 62% Calm Calm -- 30.07 in1018.3 mb - 0.00 in0.0 mm 0.00 in0.0 mm
11:40 AM 75.4°F24.1°C 59.1°F15.1°C 57% Calm Calm -- 30.07 in1018.3 mb - 0.00 in0.0 mm 0.00 in0.0 mm
11:45 AM 76.1°F24.5°C 59.8°F15.4°C 57% Calm Calm -- 30.07 in1018.3 mb - 0.00 in0.0 mm 0.00 in0.0 mm
11:50 AM 76.6°F24.8°C 60.3°F15.7°C 57% Calm Calm -- 30.06 in1017.9 mb - 0.00 in0.0 mm 0.00 in0.0 mm
11:55 AM 77.0°F25.0°C 58.6°F14.8°C 53% 2.3 mph SE3.7 kmh SE -- 30.06 in1017.9 mb - 0.00 in0.0 mm 0.00 in0.0 mm
12:00 PM 77.4°F25.2°C 59.9°F15.5°C 55% Calm Calm -- 30.06 in1017.9 mb - 0.00 in0.0 mm 0.00 in0.0 mm
12:10 PM 78.3°F25.7°C 59.7°F15.4°C 53% Calm Calm -- 30.05 in1017.6 mb - 0.00 in0.0 mm 0.00 in0.0 mm
12:15 PM 78.5°F25.8°C 59.4°F15.2°C 52% 1.2 mph SW1.9 kmh SW 8.1 mph13.0 kmh 30.05 in1017.6 mb - 0.00 in0.0 mm 0.00 in0.0 mm
12:20 PM 78.7°F25.9°C 60.7°F15.9°C 54% Calm Calm -- 30.06 in1017.9 mb - 0.00 in0.0 mm 0.00 in0.0 mm
12:25 PM 79.4°F26.3°C 61.9°F16.6°C 55% Calm Calm 4.6 mph7.4 kmh 30.06 in1017.9 mb - 0.00 in0.0 mm 0.00 in0.0 mm
12:30 PM 80.2°F26.8°C 60.4°F15.8°C 51% Calm Calm -- 30.05 in1017.6 mb - 0.00 in0.0 mm 0.00 in0.0 mm
12:35 PM 80.6°F27.0°C 61.3°F16.3°C 52% 1.2 mph E1.9 kmh E 1.2 mph1.9 kmh 30.05 in1017.6 mb - 0.00 in0.0 mm 0.00 in0.0 mm
12:40 PM 80.8°F27.1°C 59.8°F15.4°C 49% 3.5 mph SSE5.6 kmh SSE 5.8 mph9.3 kmh 30.06 in1017.9 mb - 0.00 in0.0 mm 0.00 in0.0 mm
12:45 PM 80.8°F27.1°C 58.1°F14.5°C 46% Calm Calm -- 30.06 in1017.9 mb - 0.00 in0.0 mm 0.00 in0.0 mm
12:50 PM 80.9°F27.2°C 61.1°F16.2°C 51% 1.2 mph ESE1.9 kmh ESE 5.8 mph9.3 kmh 30.05 in1017.6 mb - 0.00 in0.0 mm 0.00 in0.0 mm
12:55 PM 80.9°F27.2°C 58.8°F14.9°C 47% Calm Calm -- 30.05 in1017.6 mb - 0.00 in0.0 mm 0.00 in0.0 mm
01:00 PM 80.9°F27.2°C 59.9°F15.5°C 49% Calm Calm -- 30.05 in1017.6 mb - 0.00 in0.0 mm 0.00 in0.0 mm
01:10 PM 81.6°F27.6°C 60.0°F15.6°C 48% 2.3 mph SW3.7 kmh SW 4.6 mph7.4 kmh 30.04 in1017.3 mb - 0.00 in0.0 mm 0.00 in0.0 mm
01:15 PM 81.7°F27.6°C 57.7°F14.3°C 44% 2.3 mph S3.7 kmh S -- 30.04 in1017.3 mb - 0.00 in0.0 mm 0.00 in0.0 mm
01:20 PM 81.9°F27.7°C 61.4°F16.3°C 50% Calm Calm -- 30.04 in1017.3 mb - 0.00 in0.0 mm 0.00 in0.0 mm
01:25 PM 82.3°F27.9°C 61.8°F16.6°C 50% 1.2 mph SE1.9 kmh SE 5.8 mph9.3 kmh 30.04 in1017.3 mb - 0.00 in0.0 mm 0.00 in0.0 mm
01:30 PM 82.6°F28.1°C 59.7°F15.4°C 46% Calm Calm -- 30.04 in1017.3 mb - 0.00 in0.0 mm 0.00 in0.0 mm
01:35 PM 82.9°F28.3°C 59.4°F15.2°C 45% Calm Calm 1.2 mph1.9 kmh 30.03 in1016.9 mb - 0.00 in0.0 mm 0.00 in0.0 mm
01:40 PM 83.1°F28.4°C 59.6°F15.3°C 45% Calm Calm -- 30.03 in1016.9 mb - 0.00 in0.0 mm 0.00 in0.0 mm
01:45 PM 83.4°F28.6°C 59.8°F15.4°C 45% Calm Calm -- 30.03 in1016.9 mb - 0.00 in0.0 mm 0.00 in0.0 mm
01:50 PM 83.8°F28.8°C 62.0°F16.7°C 48% 2.3 mph S3.7 kmh S 4.6 mph7.4 kmh 30.02 in1016.6 mb - 0.00 in0.0 mm 0.00 in0.0 mm
01:55 PM 83.4°F28.6°C 61.6°F16.4°C 48% 1.2 mph SSE1.9 kmh SSE 4.6 mph7.4 kmh 30.02 in1016.6 mb - 0.00 in0.0 mm 0.00 in0.0 mm
02:00 PM 83.2°F28.4°C 61.5°F16.4°C 48% Calm Calm -- 30.02 in1016.6 mb - 0.00 in0.0 mm 0.00 in0.0 mm
02:10 PM 83.8°F28.8°C 60.8°F16.0°C 46% 1.2 mph SSE1.9 kmh SSE 3.5 mph5.6 kmh 30.03 in1016.9 mb - 0.00 in0.0 mm 0.00 in0.0 mm
02:15 PM 84.0°F28.9°C 58.5°F14.7°C 42% Calm Calm -- 30.02 in1016.6 mb - 0.00 in0.0 mm 0.00 in0.0 mm
02:20 PM 84.2°F29.0°C 61.1°F16.2°C 46% Calm Calm -- 30.02 in1016.6 mb - 0.00 in0.0 mm 0.00 in0.0 mm
02:25 PM 84.2°F29.0°C 59.3°F15.2°C 43% 4.6 mph E7.4 kmh E 1.2 mph1.9 kmh 30.02 in1016.6 mb - 0.00 in0.0 mm 0.00 in0.0 mm
02:30 PM 84.3°F29.1°C 60.6°F15.9°C 45% Calm Calm -- 30.02 in1016.6 mb - 0.00 in0.0 mm 0.00 in0.0 mm
02:35 PM 84.3°F29.1°C 60.6°F15.9°C 45% Calm Calm -- 30.02 in1016.6 mb - 0.00 in0.0 mm 0.00 in0.0 mm
02:40 PM 84.4°F29.1°C 59.5°F15.3°C 43% Calm Calm 3.5 mph5.6 kmh 30.02 in1016.6 mb - 0.00 in0.0 mm 0.00 in0.0 mm
02:45 PM 84.7°F29.3°C 59.1°F15.1°C 42% Calm Calm 3.5 mph5.6 kmh 30.01 in1016.3 mb - 0.00 in0.0 mm 0.00 in0.0 mm
02:50 PM 84.8°F29.3°C 59.2°F15.1°C 42% 1.2 mph SE1.9 kmh SE 5.8 mph9.3 kmh 30.01 in1016.3 mb - 0.00 in0.0 mm 0.00 in0.0 mm
02:55 PM 85.2°F29.6°C 61.5°F16.4°C 45% Calm Calm 1.2 mph1.9 kmh 30.01 in1016.3 mb - 0.00 in0.0 mm 0.00 in0.0 mm
03:00 PM 84.5°F29.2°C 57.6°F14.2°C 40% Calm Calm -- 30.01 in1016.3 mb - 0.00 in0.0 mm 0.00 in0.0 mm
03:10 PM 84.4°F29.1°C 60.1°F15.6°C 44% Calm Calm -- 30.00 in1015.9 mb - 0.00 in0.0 mm 0.00 in0.0 mm
03:15 PM 84.5°F29.2°C 62.1°F16.7°C 47% 1.2 mph SE1.9 kmh SE 3.5 mph5.6 kmh 30.00 in1015.9 mb - 0.00 in0.0 mm 0.00 in0.0 mm
03:20 PM 84.6°F29.2°C 59.6°F15.3°C 43% Calm Calm 3.5 mph5.6 kmh 30.00 in1015.9 mb - 0.00 in0.0 mm 0.00 in0.0 mm
03:25 PM 84.8°F29.3°C 61.1°F16.2°C 45% Calm Calm 3.5 mph5.6 kmh 30.00 in1015.9 mb - 0.00 in0.0 mm 0.00 in0.0 mm
03:35 PM 84.8°F29.3°C 61.7°F16.5°C 46% Calm Calm 3.5 mph5.6 kmh 30.00 in1015.9 mb - 0.00 in0.0 mm 0.00 in0.0 mm
03:40 PM 84.7°F29.3°C 59.7°F15.4°C 43% Calm Calm 1.2 mph1.9 kmh 29.99 in1015.6 mb - 0.00 in0.0 mm 0.00 in0.0 mm
03:45 PM 84.8°F29.3°C 58.5°F14.7°C 41% Calm Calm -- 30.00 in1015.9 mb - 0.00 in0.0 mm 0.00 in0.0 mm
03:50 PM 84.9°F29.4°C 61.2°F16.2°C 45% Calm Calm -- 29.99 in1015.6 mb - 0.00 in0.0 mm 0.00 in0.0 mm
03:55 PM 85.0°F29.4°C 57.9°F14.4°C 40% 1.2 mph S1.9 kmh S 1.2 mph1.9 kmh 29.99 in1015.6 mb - 0.00 in0.0 mm 0.00 in0.0 mm
04:00 PM 84.6°F29.2°C 59.6°F15.3°C 43% Calm Calm 3.5 mph5.6 kmh 29.99 in1015.6 mb - 0.00 in0.0 mm 0.00 in0.0 mm
04:10 PM 84.7°F29.3°C 59.1°F15.1°C 42% Calm Calm -- 29.99 in1015.6 mb - 0.00 in0.0 mm 0.00 in0.0 mm
04:15 PM 85.0°F29.4°C 60.0°F15.6°C 43% 4.6 mph SSE7.4 kmh SSE 13.8 mph22.2 kmh 29.99 in1015.6 mb - 0.00 in0.0 mm 0.00 in0.0 mm
04:20 PM 84.9°F29.4°C 59.3°F15.2°C 42% Calm Calm -- 29.98 in1015.2 mb - 0.00 in0.0 mm 0.00 in0.0 mm
04:25 PM 84.8°F29.3°C 60.5°F15.8°C 44% Calm Calm 1.2 mph1.9 kmh 29.98 in1015.2 mb - 0.00 in0.0 mm 0.00 in0.0 mm
04:30 PM 84.7°F29.3°C 60.4°F15.8°C 44% 3.5 mph SW5.6 kmh SW 3.5 mph5.6 kmh 29.98 in1015.2 mb - 0.00 in0.0 mm 0.00 in0.0 mm
04:35 PM 84.4°F29.1°C 58.8°F14.9°C 42% Calm Calm -- 29.98 in1015.2 mb - 0.00 in0.0 mm 0.00 in0.0 mm
04:40 PM 83.6°F28.7°C 59.4°F15.2°C 44% Calm Calm -- 29.98 in1015.2 mb - 0.00 in0.0 mm 0.00 in0.0 mm
04:45 PM 83.4°F28.6°C 61.1°F16.2°C 47% Calm Calm -- 29.98 in1015.2 mb - 0.00 in0.0 mm 0.00 in0.0 mm
04:50 PM 83.0°F28.3°C 59.5°F15.3°C 45% 1.2 mph WSW1.9 kmh WSW 4.6 mph7.4 kmh 29.98 in1015.2 mb - 0.00 in0.0 mm 0.00 in0.0 mm
04:55 PM 82.7°F28.2°C 58.6°F14.8°C 44% Calm Calm 3.5 mph5.6 kmh 29.98 in1015.2 mb - 0.00 in0.0 mm 0.00 in0.0 mm
05:00 PM 82.6°F28.1°C 61.5°F16.4°C 49% Calm Calm 3.5 mph5.6 kmh 29.98 in1015.2 mb - 0.00 in0.0 mm 0.00 in0.0 mm
05:10 PM 81.9°F27.7°C 59.1°F15.1°C 46% 1.2 mph SSW1.9 kmh SSW 1.2 mph1.9 kmh 29.99 in1015.6 mb - 0.00 in0.0 mm 0.00 in0.0 mm
05:15 PM 81.9°F27.7°C 58.5°F14.7°C 45% Calm Calm 1.2 mph1.9 kmh 29.98 in1015.2 mb - 0.00 in0.0 mm 0.00 in0.0 mm
05:20 PM 81.9°F27.7°C 59.1°F15.1°C 46% 1.2 mph SE1.9 kmh SE 9.2 mph14.8 kmh 29.98 in1015.2 mb - 0.00 in0.0 mm 0.00 in0.0 mm
05:25 PM 82.0°F27.8°C 59.1°F15.1°C 46% Calm Calm 3.5 mph5.6 kmh 29.98 in1015.2 mb - 0.00 in0.0 mm 0.00 in0.0 mm
05:30 PM 82.0°F27.8°C 59.2°F15.1°C 46% Calm Calm -- 29.98 in1015.2 mb - 0.00 in0.0 mm 0.00 in0.0 mm
05:35 PM 82.1°F27.8°C 60.5°F15.8°C 48% Calm Calm 1.2 mph1.9 kmh 29.98 in1015.2 mb - 0.00 in0.0 mm 0.00 in0.0 mm
05:40 PM 81.7°F27.6°C 58.3°F14.6°C 45% Calm Calm -- 29.98 in1015.2 mb - 0.00 in0.0 mm 0.00 in0.0 mm
05:45 PM 81.6°F27.6°C 60.0°F15.6°C 48% Calm Calm 9.2 mph14.8 kmh 29.98 in1015.2 mb - 0.00 in0.0 mm 0.00 in0.0 mm
05:50 PM 81.6°F27.6°C 60.0°F15.6°C 48% 1.2 mph E1.9 kmh E 1.2 mph1.9 kmh 29.98 in1015.2 mb - 0.00 in0.0 mm 0.00 in0.0 mm
05:55 PM 81.7°F27.6°C 59.5°F15.3°C 47% Calm Calm 1.2 mph1.9 kmh 29.98 in1015.2 mb - 0.00 in0.0 mm 0.00 in0.0 mm
06:00 PM 81.8°F27.7°C 60.8°F16.0°C 49% Calm Calm 4.6 mph7.4 kmh 29.98 in1015.2 mb - 0.00 in0.0 mm 0.00 in0.0 mm
06:10 PM 81.6°F27.6°C 59.4°F15.2°C 47% Calm Calm -- 29.98 in1015.2 mb - 0.00 in0.0 mm 0.00 in0.0 mm
06:15 PM 81.4°F27.4°C 59.2°F15.1°C 47% Calm Calm 3.5 mph5.6 kmh 29.98 in1015.2 mb - 0.00 in0.0 mm 0.00 in0.0 mm
06:20 PM 81.3°F27.4°C 59.1°F15.1°C 47% Calm Calm -- 29.98 in1015.2 mb - 0.00 in0.0 mm 0.00 in0.0 mm
06:25 PM 81.1°F27.3°C 59.0°F15.0°C 47% Calm Calm -- 29.98 in1015.2 mb - 0.00 in0.0 mm 0.00 in0.0 mm
06:30 PM 81.0°F27.2°C 59.5°F15.3°C 48% Calm Calm -- 29.97 in1014.9 mb - 0.00 in0.0 mm 0.00 in0.0 mm
06:35 PM 80.9°F27.2°C 58.2°F14.6°C 46% 1.2 mph S1.9 kmh S 3.5 mph5.6 kmh 29.98 in1015.2 mb - 0.00 in0.0 mm 0.00 in0.0 mm
06:40 PM 80.9°F27.2°C 58.2°F14.6°C 46% Calm Calm 4.6 mph7.4 kmh 29.98 in1015.2 mb - 0.00 in0.0 mm 0.00 in0.0 mm
06:45 PM 81.0°F27.2°C 58.3°F14.6°C 46% Calm Calm 1.2 mph1.9 kmh 29.97 in1014.9 mb - 0.00 in0.0 mm 0.00 in0.0 mm
06:50 PM 81.0°F27.2°C 59.5°F15.3°C 48% Calm Calm -- 29.97 in1014.9 mb - 0.00 in0.0 mm 0.00 in0.0 mm
06:55 PM 80.9°F27.2°C 60.0°F15.6°C 49% Calm Calm -- 29.97 in1014.9 mb - 0.00 in0.0 mm 0.00 in0.0 mm
07:00 PM 80.8°F27.1°C 60.4°F15.8°C 50% Calm Calm -- 29.97 in1014.9 mb - 0.00 in0.0 mm 0.00 in0.0 mm
07:10 PM 80.3°F26.8°C 60.0°F15.6°C 50% Calm Calm -- 29.96 in1014.6 mb - 0.00 in0.0 mm 0.00 in0.0 mm
07:15 PM 80.1°F26.7°C 59.2°F15.1°C 49% Calm Calm -- 29.96 in1014.6 mb - 0.00 in0.0 mm 0.00 in0.0 mm
07:20 PM 80.0°F26.7°C 58.5°F14.7°C 48% Calm Calm 1.2 mph1.9 kmh 29.96 in1014.6 mb - 0.00 in0.0 mm 0.00 in0.0 mm
07:25 PM 79.9°F26.6°C 59.0°F15.0°C 49% Calm Calm -- 29.96 in1014.6 mb - 0.00 in0.0 mm 0.00 in0.0 mm
07:30 PM 79.7°F26.5°C 58.8°F14.9°C 49% Calm Calm -- 29.96 in1014.6 mb - 0.00 in0.0 mm 0.00 in0.0 mm
07:35 PM 79.6°F26.4°C 58.8°F14.9°C 49% Calm Calm 3.5 mph5.6 kmh 29.96 in1014.6 mb - 0.00 in0.0 mm 0.00 in0.0 mm
07:40 PM 79.5°F26.4°C 59.2°F15.1°C 50% Calm Calm -- 29.96 in1014.6 mb - 0.00 in0.0 mm 0.00 in0.0 mm
07:45 PM 79.3°F26.3°C 59.0°F15.0°C 50% Calm Calm 1.2 mph1.9 kmh 29.96 in1014.6 mb - 0.00 in0.0 mm 0.00 in0.0 mm
07:50 PM 79.1°F26.2°C 59.4°F15.2°C 51% Calm Calm 1.2 mph1.9 kmh 29.96 in1014.6 mb - 0.00 in0.0 mm 0.00 in0.0 mm
07:55 PM 79.0°F26.1°C 58.8°F14.9°C 50% Calm Calm -- 29.96 in1014.6 mb - 0.00 in0.0 mm 0.00 in0.0 mm
08:10 PM 78.6°F25.9°C 60.1°F15.6°C 53% Calm Calm -- 29.96 in1014.6 mb - 0.00 in0.0 mm 0.00 in0.0 mm
08:15 PM 78.3°F25.7°C 59.8°F15.4°C 53% Calm Calm -- 29.95 in1014.2 mb - 0.00 in0.0 mm 0.00 in0.0 mm
08:20 PM 77.9°F25.5°C 60.0°F15.6°C 54% Calm Calm -- 29.95 in1014.2 mb - 0.00 in0.0 mm 0.00 in0.0 mm
08:25 PM 77.6°F25.3°C 59.1°F15.1°C 53% Calm Calm -- 29.95 in1014.2 mb - 0.00 in0.0 mm 0.00 in0.0 mm
08:30 PM 77.2°F25.1°C 58.7°F14.8°C 53% Calm Calm -- 29.96 in1014.6 mb - 0.00 in0.0 mm 0.00 in0.0 mm
08:35 PM 76.8°F24.9°C 58.9°F14.9°C 54% Calm Calm -- 29.96 in1014.6 mb - 0.00 in0.0 mm 0.00 in0.0 mm
08:40 PM 76.4°F24.7°C 58.5°F14.7°C 54% Calm Calm -- 29.96 in1014.6 mb - 0.00 in0.0 mm 0.00 in0.0 mm
08:45 PM 75.9°F24.4°C 58.5°F14.7°C 55% Calm Calm -- 29.96 in1014.6 mb - 0.00 in0.0 mm 0.00 in0.0 mm
08:50 PM 75.4°F24.1°C 59.6°F15.3°C 58% Calm Calm -- 29.96 in1014.6 mb - 0.00 in0.0 mm 0.00 in0.0 mm
08:55 PM 74.9°F23.8°C 60.6°F15.9°C 61% Calm Calm -- 29.96 in1014.6 mb - 0.00 in0.0 mm 0.00 in0.0 mm
09:00 PM 74.5°F23.6°C 61.1°F16.2°C 63% Calm Calm -- 29.96 in1014.6 mb - 0.00 in0.0 mm 0.00 in0.0 mm
09:10 PM 73.3°F22.9°C 60.8°F16.0°C 65% Calm Calm -- 29.95 in1014.2 mb - 0.00 in0.0 mm 0.00 in0.0 mm
09:15 PM 72.8°F22.7°C 60.7°F15.9°C 66% Calm Calm -- 29.95 in1014.2 mb - 0.00 in0.0 mm 0.00 in0.0 mm
09:20 PM 72.1°F22.3°C 60.6°F15.9°C 67% Calm Calm -- 29.95 in1014.2 mb - 0.00 in0.0 mm 0.00 in0.0 mm
09:25 PM 71.6°F22.0°C 60.4°F15.8°C 68% Calm Calm -- 29.96 in1014.6 mb - 0.00 in0.0 mm 0.00 in0.0 mm
09:30 PM 71.0°F21.7°C 59.9°F15.5°C 68% Calm Calm -- 29.96 in1014.6 mb - 0.00 in0.0 mm 0.00 in0.0 mm
09:35 PM 70.5°F21.4°C 59.0°F15.0°C 67% Calm Calm -- 29.96 in1014.6 mb - 0.00 in0.0 mm 0.00 in0.0 mm
09:40 PM 70.2°F21.2°C 59.5°F15.3°C 69% Calm Calm -- 29.96 in1014.6 mb - 0.00 in0.0 mm 0.00 in0.0 mm
09:45 PM 69.9°F21.1°C 59.6°F15.3°C 70% Calm Calm -- 29.97 in1014.9 mb - 0.00 in0.0 mm 0.00 in0.0 mm
09:50 PM 69.4°F20.8°C 59.2°F15.1°C 70% Calm Calm -- 29.97 in1014.9 mb - 0.00 in0.0 mm 0.00 in0.0 mm
09:55 PM 69.0°F20.6°C 58.8°F14.9°C 70% Calm Calm -- 29.97 in1014.9 mb - 0.00 in0.0 mm 0.00 in0.0 mm
10:00 PM 68.5°F20.3°C 58.3°F14.6°C 70% Calm Calm -- 29.97 in1014.9 mb - 0.00 in0.0 mm 0.00 in0.0 mm
10:10 PM 67.8°F19.9°C 58.4°F14.7°C 72% Calm Calm -- 29.96 in1014.6 mb - 0.00 in0.0 mm 0.00 in0.0 mm
10:15 PM 67.5°F19.7°C 58.2°F14.6°C 72% Calm Calm -- 29.96 in1014.6 mb - 0.00 in0.0 mm 0.00 in0.0 mm
10:20 PM 67.2°F19.6°C 58.2°F14.6°C 73% Calm Calm -- 29.96 in1014.6 mb - 0.00 in0.0 mm 0.00 in0.0 mm
10:25 PM 67.0°F19.4°C 58.4°F14.7°C 74% Calm Calm -- 29.96 in1014.6 mb - 0.00 in0.0 mm 0.00 in0.0 mm
10:30 PM 66.7°F19.3°C 58.1°F14.5°C 74% Calm Calm -- 29.96 in1014.6 mb - 0.00 in0.0 mm 0.00 in0.0 mm
10:35 PM 66.5°F19.2°C 58.3°F14.6°C 75% Calm Calm -- 29.96 in1014.6 mb - 0.00 in0.0 mm 0.00 in0.0 mm
10:40 PM 66.3°F19.1°C 58.5°F14.7°C 76% Calm Calm -- 29.96 in1014.6 mb - 0.00 in0.0 mm 0.00 in0.0 mm
10:45 PM 66.1°F18.9°C 58.3°F14.6°C 76% Calm Calm -- 29.96 in1014.6 mb - 0.00 in0.0 mm 0.00 in0.0 mm
10:50 PM 65.8°F18.8°C 58.0°F14.4°C 76% Calm Calm -- 29.96 in1014.6 mb - 0.00 in0.0 mm 0.00 in0.0 mm
10:55 PM 65.6°F18.7°C 58.2°F14.6°C 77% Calm Calm -- 29.97 in1014.9 mb - 0.00 in0.0 mm 0.00 in0.0 mm
11:00 PM 65.2°F18.4°C 57.8°F14.3°C 77% Calm Calm -- 29.97 in1014.9 mb - 0.00 in0.0 mm 0.00 in0.0 mm
11:10 PM 64.6°F18.1°C 57.6°F14.2°C 78% Calm Calm -- 29.96 in1014.6 mb - 0.00 in0.0 mm 0.00 in0.0 mm
11:15 PM 64.5°F18.1°C 57.5°F14.2°C 78% Calm Calm -- 29.96 in1014.6 mb - 0.00 in0.0 mm 0.00 in0.0 mm
11:20 PM 64.4°F18.0°C 57.4°F14.1°C 78% Calm Calm -- 29.96 in1014.6 mb - 0.00 in0.0 mm 0.00 in0.0 mm
11:25 PM 64.3°F17.9°C 57.3°F14.1°C 78% Calm Calm -- 29.96 in1014.6 mb - 0.00 in0.0 mm 0.00 in0.0 mm
11:30 PM 64.3°F17.9°C 57.6°F14.2°C 79% Calm Calm -- 29.97 in1014.9 mb - 0.00 in0.0 mm 0.00 in0.0 mm
11:35 PM 64.2°F17.9°C 57.5°F14.2°C 79% Calm Calm -- 29.97 in1014.9 mb - 0.00 in0.0 mm 0.00 in0.0 mm
11:40 PM 64.1°F17.8°C 57.4°F14.1°C 79% Calm Calm -- 29.97 in1014.9 mb - 0.00 in0.0 mm 0.00 in0.0 mm
11:45 PM 63.9°F17.7°C 57.3°F14.1°C 79% Calm Calm -- 29.97 in1014.9 mb - 0.00 in0.0 mm 0.00 in0.0 mm
11:50 PM 63.7°F17.6°C 57.1°F13.9°C 79% Calm Calm -- 29.97 in1014.9 mb - 0.00 in0.0 mm 0.00 in0.0 mm
11:55 PM 63.6°F17.6°C 56.9°F13.8°C 79% Calm Calm -- 29.97 in1014.9 mb - 0.00 in0.0 mm 0.00 in0.0 mm